CTX weather

Cortland County Chase Field
Cortland, New York, United States

Public forecast

Using degrees Fahrenheit for public forecast. Weather courtesy of forecast.io.

Current aviation weather report (METAR) for Cortland County Chase Field

Retrieved 2019/10/21 19:35 UTC (1 minute ago):

KN03 211935Z AUTO 10006KT 10SM CLR 17/06 A3006 RMK AO2

Closest aviation forecast (TAF) to Cortland County Chase Field

Closest forecast is Ithaca Tompkins Regional Airport, 12.4 nm (22.9 km) WSW. Retrieved 2019/10/21 18:27 UTC (1 hour ago):

TAF KITH 211724Z 2118/2218 13005KT P6SM SCT200 FM220400 15013G22KT P6SM BKN200 FM220900 16013G24KT P6SM OVC040 FM221700 16013G21KT P6SM -RA OVC025